Time;durP1;ratioP1;P1;durP2;ratioP2;P2;SDS_P1;SDS_P2;PMS_P1;PMS_P2;Temp;Humidity;BMP_temperature;BMP_pressure;BME280_temperature;BME280_humidity;BME280_pressure;Samples;Min_cycle;Max_cycle;Signal;HPM_P1;HPM_P2
2021/03/14 00:00:43;;;;;;;2.28;1.02;;;;;;;4.02;88.69;99341.25;5048742;28;20091;-82
2021/03/14 00:03:09;;;;;;;3.28;0.90;;;;;;;3.95;88.70;99342.78;5051703;28;20048;-81
2021/03/14 00:05:40;;;;;;;3.58;1.25;;;;;;;3.96;88.34;99344.44;5042023;28;20036;-82
2021/03/14 00:08:07;;;;;;;2.30;0.80;;;;;;;4.01;86.23;99332.59;5054110;28;20033;-80
2021/03/14 00:10:32;;;;;;;4.90;1.38;;;;;;;4.03;85.25;99325.44;5055039;28;20276;-79
2021/03/14 00:12:58;;;;;;;3.30;0.88;;;;;;;4.04;84.68;99318.41;5053720;28;20405;-83
2021/03/14 00:15:24;;;;;;;2.95;0.85;;;;;;;3.96;85.03;99315.69;5054638;28;20042;-81
2021/03/14 00:17:50;;;;;;;4.90;0.88;;;;;;;3.88;85.75;99326.81;5043411;28;20040;-82
2021/03/14 00:20:16;;;;;;;5.78;0.88;;;;;;;3.96;84.80;99328.75;5047740;28;20033;-81
2021/03/14 00:22:41;;;;;;;3.70;0.90;;;;;;;3.88;84.97;99336.44;5049631;28;20116;-81
2021/03/14 00:25:08;;;;;;;5.18;1.02;;;;;;;3.96;84.28;99334.00;5042527;28;20057;-81
2021/03/14 00:27:34;;;;;;;3.70;1.15;;;;;;;3.87;84.80;99338.25;5049456;28;20065;-81
2021/03/14 00:30:00;;;;;;;3.75;0.90;;;;;;;3.74;88.95;99342.91;5044366;28;20041;-81
2021/03/14 00:32:25;;;;;;;2.63;1.00;;;;;;;3.74;87.22;99349.00;5039043;28;20450;-81
2021/03/14 00:34:50;;;;;;;1.63;0.80;;;;;;;3.79;86.68;99348.56;5040763;28;20033;-80
2021/03/14 00:37:16;;;;;;;3.65;0.93;;;;;;;3.86;85.17;99356.69;5042700;28;20089;-81
2021/03/14 00:39:41;;;;;;;5.00;1.65;;;;;;;3.90;84.95;99358.88;5037360;28;20041;-81
2021/03/14 00:42:06;;;;;;;1.60;1.00;;;;;;;3.83;86.33;99365.63;5051776;28;20041;-81
2021/03/14 00:44:32;;;;;;;2.08;0.80;;;;;;;3.87;85.35;99361.78;5042545;28;20129;-81
2021/03/14 00:46:57;;;;;;;5.63;1.23;;;;;;;3.92;84.43;99359.56;5044604;28;20048;-82
2021/03/14 00:49:23;;;;;;;2.70;1.13;;;;;;;3.92;84.63;99364.81;5046868;28;20056;-82
2021/03/14 00:51:48;;;;;;;3.28;1.20;;;;;;;3.94;84.17;99365.50;5039768;28;20080;-81
2021/03/14 00:54:14;;;;;;;4.93;1.33;;;;;;;3.91;84.38;99371.00;5049318;28;20041;-81
2021/03/14 00:56:39;;;;;;;2.58;0.90;;;;;;;3.81;86.25;99371.00;5041612;28;20124;-81
2021/03/14 00:59:05;;;;;;;2.88;0.88;;;;;;;3.87;85.17;99382.69;5041315;28;20564;-81
2021/03/14 01:01:30;;;;;;;5.75;1.50;;;;;;;3.83;85.43;99379.53;5045953;28;20113;-80
2021/03/14 01:03:56;;;;;;;5.13;1.30;;;;;;;3.86;84.83;99378.41;5053699;28;20167;-82
2021/03/14 01:06:21;;;;;;;3.22;1.35;;;;;;;3.81;84.81;99381.47;5044947;28;20036;-81
2021/03/14 01:08:48;;;;;;;4.07;1.17;;;;;;;3.79;85.06;99382.53;5041051;28;20482;-81
2021/03/14 01:11:14;;;;;;;2.55;0.98;;;;;;;3.79;84.92;99380.78;5044710;28;20040;-81
2021/03/14 01:13:39;;;;;;;2.55;0.90;;;;;;;3.82;85.25;99382.28;5054686;28;20494;-81
2021/03/14 01:16:05;;;;;;;2.28;0.90;;;;;;;3.89;84.90;99387.81;5048815;28;20041;-81
2021/03/14 01:18:31;;;;;;;3.40;1.35;;;;;;;3.93;84.10;99384.78;5045106;28;20052;-81
2021/03/14 01:20:58;;;;;;;3.35;1.08;;;;;;;3.97;84.34;99393.16;5051373;28;20055;-81
2021/03/14 01:23:24;;;;;;;3.95;1.10;;;;;;;3.96;84.16;99400.19;5053031;28;20067;-81
2021/03/14 01:25:50;;;;;;;5.40;1.50;;;;;;;4.01;83.79;99400.59;5047628;28;20067;-80
2021/03/14 01:28:20;;;;;;;2.47;1.10;;;;;;;4.02;83.77;99402.25;5043735;28;20041;-81
2021/03/14 01:30:47;;;;;;;4.28;1.35;;;;;;;4.04;83.56;99399.50;5053950;28;20040;-80
2021/03/14 01:33:13;;;;;;;3.13;1.20;;;;;;;4.02;83.33;99401.41;5032419;28;20038;-82
2021/03/14 01:35:39;;;;;;;3.20;1.00;;;;;;;3.98;83.70;99398.28;5049413;28;20421;-82
2021/03/14 01:38:05;;;;;;;2.05;1.08;;;;;;;3.97;83.72;99398.41;5050090;28;20105;-82
2021/03/14 01:40:34;;;;;;;4.32;0.95;;;;;;;3.83;87.40;99405.66;5045042;28;20399;-82
2021/03/14 01:43:00;;;;;;;5.55;1.10;;;;;;;3.90;85.44;99405.13;5049023;28;20453;-81
2021/03/14 01:45:27;;;;;;;4.35;1.30;;;;;;;3.95;84.73;99419.44;5051586;28;20096;-81
2021/03/14 01:47:53;;;;;;;1.80;0.93;;;;;;;4.03;83.46;99419.59;5047870;28;20029;-81
2021/03/14 01:50:22;;;;;;;1.77;0.90;;;;;;;3.99;83.64;99417.41;5050433;28;20072;-81
2021/03/14 01:52:49;;;;;;;3.08;1.10;;;;;;;4.07;83.42;99419.31;5055880;28;20086;-81
2021/03/14 01:55:20;;;;;;;3.10;1.00;;;;;;;3.96;83.85;99423.72;5039394;28;20040;-82
2021/03/14 01:57:47;;;;;;;2.67;1.13;;;;;;;4.02;83.33;99425.78;5055052;28;20075;-81
2021/03/14 02:00:17;;;;;;;3.08;1.10;;;;;;;3.97;83.22;99422.75;5051918;28;20048;-81
2021/03/14 02:02:44;;;;;;;1.60;0.80;;;;;;;3.77;85.68;99428.94;5050974;28;20117;-82
2021/03/14 02:05:14;;;;;;;2.72;0.98;;;;;;;3.77;85.14;99427.16;5045540;28;20048;-80
2021/03/14 02:07:44;;;;;;;2.13;1.10;;;;;;;3.83;84.34;99429.19;5034118;28;20041;-80
2021/03/14 02:10:13;;;;;;;4.03;1.02;;;;;;;3.91;83.79;99431.16;5048487;28;20045;-82
2021/03/14 02:12:58;;;;;;;2.80;1.00;;;;;;;3.82;84.29;99431.97;5045786;28;20421;-81
2021/03/14 02:15:26;;;;;;;3.72;1.10;;;;;;;3.86;83.84;99422.88;5042462;28;20499;-82
2021/03/14 02:17:53;;;;;;;3.08;1.10;;;;;;;3.68;87.07;99434.97;5050687;28;20495;-80
2021/03/14 02:20:23;;;;;;;3.67;1.10;;;;;;;3.78;84.86;99435.81;5055833;28;20032;-82
2021/03/14 02:22:57;;;;;;;2.45;0.80;;;;;;;3.69;86.86;99447.06;5056606;28;20032;-81
2021/03/14 02:25:31;;;;;;;1.77;0.90;;;;;;;3.54;88.43;99450.06;5045704;28;20049;-80
2021/03/14 02:27:58;;;;;;;3.90;1.00;;;;;;;3.58;87.28;99461.91;5043446;28;20067;-80
2021/03/14 02:30:25;;;;;;;2.85;1.00;;;;;;;3.58;88.59;99464.53;5054402;28;20028;-81
2021/03/14 02:32:52;;;;;;;6.70;1.67;;;;;;;3.66;86.97;99469.09;5048163;28;20206;-82
2021/03/14 02:35:20;;;;;;;5.22;1.60;;;;;;;3.67;86.52;99472.53;5048750;28;20445;-80
2021/03/14 02:37:48;;;;;;;2.60;1.05;;;;;;;3.79;85.70;99484.50;5067111;28;20029;-81
2021/03/14 02:40:18;;;;;;;2.83;1.35;;;;;;;3.82;85.84;99482.47;5051716;28;20625;-82
2021/03/14 02:42:46;;;;;;;3.03;1.52;;;;;;;3.90;85.36;99481.78;5051195;28;20083;-82
2021/03/14 02:45:13;;;;;;;5.07;2.08;;;;;;;3.94;84.70;99485.81;5056581;28;20056;-80
2021/03/14 02:47:39;;;;;;;3.67;1.70;;;;;;;3.90;84.93;99489.66;5042234;28;20104;-80
2021/03/14 02:50:10;;;;;;;4.50;2.22;;;;;;;3.94;84.40;99498.88;5041476;28;20045;-82
2021/03/14 02:52:36;;;;;;;4.97;2.00;;;;;;;3.91;84.62;99500.94;5055802;28;20061;-80
2021/03/14 02:55:04;;;;;;;6.40;1.85;;;;;;;3.90;84.12;99497.50;5047466;28;20317;-81
2021/03/14 02:57:30;;;;;;;4.82;1.50;;;;;;;3.81;85.08;99511.38;5052992;28;20080;-82
2021/03/14 02:59:57;;;;;;;3.42;1.50;;;;;;;3.74;84.85;99520.69;5058021;28;20147;-82
2021/03/14 03:02:25;;;;;;;4.88;1.60;;;;;;;3.74;85.48;99518.09;5037958;28;20037;-81
2021/03/14 03:04:52;;;;;;;3.42;1.38;;;;;;;3.77;83.33;99518.66;5050991;28;20053;-80
2021/03/14 03:07:19;;;;;;;4.85;1.20;;;;;;;3.74;83.47;99518.09;5040178;28;20033;-81
2021/03/14 03:09:53;;;;;;;2.38;1.10;;;;;;;3.78;82.66;99527.31;5052290;28;20040;-82
2021/03/14 03:12:23;;;;;;;6.07;1.33;;;;;;;3.74;83.13;99531.16;5052650;28;20291;-81
2021/03/14 03:14:51;;;;;;;4.13;1.00;;;;;;;3.78;82.42;99532.56;5038715;28;20131;-80
2021/03/14 03:17:22;;;;;;;3.72;1.10;;;;;;;3.80;82.72;99547.16;5045108;28;20410;-80
2021/03/14 03:19:49;;;;;;;6.30;1.67;;;;;;;3.83;81.13;99544.25;5056094;28;20029;-80
2021/03/14 03:22:15;;;;;;;3.92;1.05;;;;;;;3.88;81.10;99551.72;5045999;28;20048;-80
2021/03/14 03:24:40;;;;;;;4.15;1.15;;;;;;;3.75;82.81;99561.59;5040126;28;20036;-81
2021/03/14 03:27:06;;;;;;;2.92;1.25;;;;;;;3.82;81.91;99573.19;5037718;28;20045;-81
2021/03/14 03:29:32;;;;;;;3.40;1.13;;;;;;;3.93;81.21;99562.63;5038860;28;20549;-79
2021/03/14 03:31:57;;;;;;;6.13;1.27;;;;;;;3.96;80.76;99567.59;5038412;28;20029;-80
2021/03/14 03:34:23;;;;;;;6.30;1.73;;;;;;;3.98;80.64;99565.66;5043564;28;20032;-81
2021/03/14 03:36:48;;;;;;;4.25;1.40;;;;;;;4.01;80.19;99568.00;5045706;28;20048;-81
2021/03/14 03:39:14;;;;;;;4.57;1.50;;;;;;;3.93;81.22;99578.31;5043576;28;20064;-81
2021/03/14 03:42:06;;;;;;;3.80;1.20;;;;;;;3.90;82.69;99577.75;5051459;28;20668;-81
2021/03/14 03:44:35;;;;;;;8.32;1.40;;;;;;;3.95;80.87;99586.84;5042628;28;20508;-82
2021/03/14 03:47:01;;;;;;;3.40;1.42;;;;;;;4.03;80.28;99581.78;5045911;28;20037;-81
2021/03/14 03:49:32;;;;;;;5.60;1.30;;;;;;;3.82;83.28;99599.34;5050624;28;20517;-82
2021/03/14 03:52:02;;;;;;;4.05;1.40;;;;;;;3.93;80.95;99595.78;5054464;28;20041;-81
2021/03/14 03:54:30;;;;;;;4.07;1.77;;;;;;;3.84;80.27;99613.09;5051544;28;20498;-82
2021/03/14 03:56:57;;;;;;;6.15;1.63;;;;;;;3.75;83.74;99614.72;5055753;28;20331;-80
2021/03/14 03:59:25;;;;;;;5.80;1.90;;;;;;;3.66;83.58;99632.97;5045050;28;20076;-80
2021/03/14 04:01:52;;;;;;;5.07;2.15;;;;;;;3.52;85.92;99641.97;5054263;28;20112;-81
2021/03/14 04:04:19;;;;;;;4.35;2.13;;;;;;;3.45;85.60;99640.81;5048127;28;20517;-82
2021/03/14 04:06:48;;;;;;;4.07;2.08;;;;;;;3.31;85.47;99641.94;5053534;28;20060;-81
2021/03/14 04:09:14;;;;;;;6.32;2.10;;;;;;;3.23;87.65;99634.75;5054876;28;20112;-81
2021/03/14 04:11:40;;;;;;;3.40;1.80;;;;;;;3.16;87.52;99646.66;5061840;28;20036;-81
2021/03/14 04:14:09;;;;;;;5.97;2.10;;;;;;;3.09;88.99;99648.94;5047045;28;20033;-82
2021/03/14 04:16:37;;;;;;;3.50;1.67;;;;;;;3.09;88.74;99648.94;5044954;28;20030;-82
2021/03/14 04:19:03;;;;;;;3.75;1.73;;;;;;;3.08;89.26;99654.31;5051382;28;20079;-81
2021/03/14 04:21:29;;;;;;;6.03;1.80;;;;;;;3.09;89.35;99658.56;5042753;28;20041;-81
2021/03/14 04:23:56;;;;;;;3.40;1.60;;;;;;;3.09;90.08;99659.38;5042557;28;20036;-81
2021/03/14 04:26:22;;;;;;;3.17;2.05;;;;;;;3.13;90.00;99665.22;5054911;28;20033;-80
2021/03/14 04:28:49;;;;;;;3.47;2.10;;;;;;;3.16;90.04;99678.84;5055168;28;20040;-82
2021/03/14 04:31:17;;;;;;;3.58;1.30;;;;;;;3.21;89.36;99683.69;5048484;28;20567;-82
2021/03/14 04:33:43;;;;;;;4.22;2.00;;;;;;;3.26;89.39;99686.75;5046142;28;20529;-81
2021/03/14 04:36:12;;;;;;;6.93;2.75;;;;;;;3.32;87.91;99685.44;5053202;28;20033;-81
2021/03/14 04:38:42;;;;;;;4.63;2.15;;;;;;;3.26;89.86;99693.75;5050702;28;20037;-82
2021/03/14 04:41:08;;;;;;;4.57;2.67;;;;;;;3.29;88.84;99689.13;5038304;28;20037;-82
2021/03/14 04:43:34;;;;;;;5.47;2.47;;;;;;;3.38;87.85;99696.22;5054619;28;20029;-82
2021/03/14 04:46:00;;;;;;;4.68;2.65;;;;;;;3.38;87.97;99703.19;5042595;28;20372;-81
2021/03/14 04:48:26;;;;;;;4.05;2.10;;;;;;;3.37;89.22;99701.56;5034893;28;20045;-81
2021/03/14 04:50:53;;;;;;;4.82;2.33;;;;;;;3.40;88.07;99703.91;5050717;28;20402;-82
2021/03/14 04:53:21;;;;;;;4.40;2.75;;;;;;;3.39;88.67;99702.28;5049691;28;20040;-80
2021/03/14 04:55:48;;;;;;;5.28;3.03;;;;;;;3.36;88.63;99711.19;5050844;28;20402;-82
2021/03/14 04:58:16;;;;;;;6.25;3.33;;;;;;;3.32;88.41;99719.41;5043337;28;20051;-80
2021/03/14 05:00:43;;;;;;;5.82;3.38;;;;;;;3.26;89.58;99720.72;5054000;28;20033;-82
2021/03/14 05:03:13;;;;;;;7.28;3.17;;;;;;;3.25;89.08;99726.09;5052833;28;20498;-81
2021/03/14 05:05:41;;;;;;;5.22;2.97;;;;;;;3.27;89.40;99732.84;5053864;28;20545;-82
2021/03/14 05:08:09;;;;;;;7.18;3.30;;;;;;;3.31;88.84;99743.84;5045574;28;20033;-81
2021/03/14 05:10:35;;;;;;;6.07;3.30;;;;;;;3.36;88.10;99736.47;5054431;28;20033;-81
2021/03/14 05:13:02;;;;;;;7.03;3.85;;;;;;;3.47;87.31;99746.88;5044504;28;20037;-81
2021/03/14 05:15:28;;;;;;;3.85;2.60;;;;;;;3.39;87.92;99747.50;5049967;28;20053;-80
2021/03/14 05:17:54;;;;;;;5.18;2.97;;;;;;;3.41;88.58;99755.25;5048643;28;20055;-80
2021/03/14 05:20:20;;;;;;;4.00;2.70;;;;;;;3.43;88.16;99760.31;5051316;28;20025;-81
2021/03/14 05:22:48;;;;;;;5.85;3.13;;;;;;;3.40;87.98;99758.78;5045978;28;20388;-81
2021/03/14 05:25:15;;;;;;;6.47;3.00;;;;;;;3.39;88.15;99764.97;5048403;28;20037;-81
2021/03/14 05:27:42;;;;;;;4.40;3.00;;;;;;;3.43;87.84;99762.94;5049248;28;20047;-82
2021/03/14 05:30:08;;;;;;;6.55;3.40;;;;;;;3.41;87.10;99768.31;5037938;28;20518;-81
2021/03/14 05:32:33;;;;;;;4.22;2.58;;;;;;;3.38;87.82;99766.78;5050465;28;20036;-82
2021/03/14 05:34:59;;;;;;;6.82;3.05;;;;;;;3.37;88.18;99765.09;5050788;28;20036;-82
2021/03/14 05:37:24;;;;;;;3.85;2.80;;;;;;;3.40;86.67;99779.69;5057551;28;20344;-82
2021/03/14 05:39:51;;;;;;;5.47;2.80;;;;;;;3.39;87.55;99789.31;5050274;28;20040;-82
2021/03/14 05:42:17;;;;;;;7.57;3.10;;;;;;;3.38;87.79;99799.91;5042982;28;20056;-81
2021/03/14 05:44:45;;;;;;;6.18;2.85;;;;;;;3.46;85.55;99794.91;5049823;28;20030;-81
2021/03/14 05:47:11;;;;;;;3.83;2.70;;;;;;;3.48;86.57;99797.38;5050121;28;20037;-82
2021/03/14 05:49:36;;;;;;;6.30;3.40;;;;;;;3.42;86.25;99797.88;5049343;28;20127;-81
2021/03/14 05:52:02;;;;;;;7.47;3.03;;;;;;;3.42;87.48;99818.78;5054389;28;20510;-82
2021/03/14 05:54:29;;;;;;;7.00;2.83;;;;;;;3.40;87.53;99814.50;5047454;28;20044;-82
2021/03/14 05:56:56;;;;;;;6.05;2.88;;;;;;;3.46;85.71;99821.03;5046784;28;20040;-81
2021/03/14 05:59:22;;;;;;;4.50;2.20;;;;;;;3.45;87.76;99821.16;5053125;28;20112;-82
2021/03/14 06:01:50;;;;;;;4.45;2.58;;;;;;;3.45;86.40;99819.34;5039844;28;20056;-82
2021/03/14 06:04:17;;;;;;;5.43;2.45;;;;;;;3.49;85.46;99823.38;5045437;28;20037;-81
2021/03/14 06:06:43;;;;;;;5.55;2.08;;;;;;;3.48;86.73;99832.19;5047660;28;20029;-80
2021/03/14 06:09:08;;;;;;;5.35;2.55;;;;;;;3.50;85.39;99837.28;5054614;28;20031;-81
2021/03/14 06:11:34;;;;;;;5.28;2.50;;;;;;;3.53;83.29;99842.28;5037923;28;20117;-81
2021/03/14 06:14:01;;;;;;;9.45;2.67;;;;;;;3.64;84.13;99846.63;5037677;28;20137;-81
2021/03/14 06:16:26;;;;;;;6.47;2.28;;;;;;;3.58;84.83;99845.34;5053218;28;20044;-79
2021/03/14 06:18:53;;;;;;;4.20;2.30;;;;;;;3.65;83.25;99856.13;5044815;28;20040;-82
2021/03/14 06:21:26;;;;;;;6.95;1.88;;;;;;;3.78;82.72;99862.03;5050836;28;20040;-81
2021/03/14 06:23:57;;;;;;;5.63;2.00;;;;;;;3.75;83.02;99867.53;5053746;28;20152;-80
2021/03/14 06:26:40;;;;;;;2.60;1.65;;;;;;;3.79;83.76;99871.53;5052788;28;20446;-81
2021/03/14 06:29:22;;;;;;;6.75;1.90;;;;;;;3.84;82.34;99879.84;5043064;28;20041;-81
2021/03/14 06:31:52;;;;;;;4.53;1.75;;;;;;;3.81;82.26;99893.16;5049741;28;20045;-81
2021/03/14 06:34:38;;;;;;;5.03;1.80;;;;;;;3.88;82.60;99896.09;5042084;28;20087;-82
2021/03/14 06:37:06;;;;;;;5.50;1.85;;;;;;;3.86;83.53;99892.78;5054507;28;20092;-81
2021/03/14 06:39:31;;;;;;;3.78;1.60;;;;;;;3.85;82.91;99902.41;5041546;28;20037;-81
2021/03/14 06:41:57;;;;;;;4.53;1.80;;;;;;;3.84;82.93;99900.78;5055460;28;20067;-80
2021/03/14 06:44:36;;;;;;;5.82;1.77;;;;;;;3.87;82.51;99910.16;5044851;28;20522;-81
2021/03/14 06:47:04;;;;;;;4.30;1.60;;;;;;;3.86;82.24;99906.69;5047440;28;20037;-82
2021/03/14 06:49:35;;;;;;;6.32;2.15;;;;;;;3.89;81.15;99911.69;5049106;28;20041;-82
2021/03/14 06:52:01;;;;;;;5.30;1.67;;;;;;;3.85;81.29;99915.50;5039928;28;20025;-81
2021/03/14 06:54:32;;;;;;;6.53;2.13;;;;;;;3.85;80.98;99919.91;5042093;28;20334;-81
2021/03/14 06:57:03;;;;;;;;;;;;;;;3.93;79.79;99927.94;5051651;28;20422;-82
2021/03/14 06:59:30;;;;;;;2.40;1.60;;;;;;;3.91;81.47;99941.19;5050801;28;20407;-82
2021/03/14 07:02:15;;;;;;;6.60;2.58;;;;;;;3.91;80.79;99938.56;5050163;28;20037;-81
2021/03/14 07:04:42;;;;;;;7.82;2.47;;;;;;;4.03;79.29;99940.19;5048299;28;20033;-80
2021/03/14 07:07:23;;;;;;;5.82;2.15;;;;;;;4.43;78.79;99949.16;5043035;28;20037;-81
2021/03/14 07:10:05;;;;;;;5.90;2.25;;;;;;;5.44;78.09;99953.72;5035435;28;20035;-79
2021/03/14 07:12:36;;;;;;;5.97;1.92;;;;;;;6.10;72.47;99962.84;5052999;28;20132;-81
2021/03/14 07:15:16;;;;;;;5.10;2.00;;;;;;;6.34;72.22;99967.69;5043805;28;20091;-82
2021/03/14 07:17:48;;;;;;;5.13;1.60;;;;;;;6.38;72.23;99969.91;5044340;28;20163;-81
2021/03/14 07:20:17;;;;;;;7.22;2.30;;;;;;;6.25;71.26;99973.81;5052446;28;20315;-81
2021/03/14 07:23:00;;;;;;;4.45;2.22;;;;;;;5.88;71.77;99977.84;5048883;28;20121;-81
2021/03/14 07:25:25;;;;;;;5.03;2.50;;;;;;;5.67;72.67;99983.22;5068157;28;20391;-82
2021/03/14 07:27:52;;;;;;;6.32;2.50;;;;;;;5.67;74.38;99983.22;5037631;28;20029;-80
2021/03/14 07:30:22;;;;;;;4.95;2.67;;;;;;;5.78;74.01;99986.69;5053644;28;20040;-82
2021/03/14 07:32:49;;;;;;;4.75;2.70;;;;;;;6.01;72.48;99990.78;5046705;28;20392;-81
2021/03/14 07:35:15;;;;;;;8.63;3.10;;;;;;;6.18;70.88;99991.91;5044953;28;20482;-81
2021/03/14 07:37:42;;;;;;;6.22;2.80;;;;;;;5.82;73.18;99995.94;5049398;28;20061;-80
2021/03/14 07:40:16;;;;;;;4.63;2.50;;;;;;;5.77;73.71;99995.50;5045398;28;20038;-81
2021/03/14 07:42:42;;;;;;;4.20;2.45;;;;;;;5.57;72.26;100003.31;5057526;28;20029;-81
2021/03/14 07:45:12;;;;;;;8.93;2.75;;;;;;;5.59;74.09;100003.19;5053021;28;20124;-81
2021/03/14 07:47:40;;;;;;;5.13;2.92;;;;;;;5.63;72.29;100001.97;5051457;28;20029;-81
2021/03/14 07:50:09;;;;;;;5.55;2.50;;;;;;;5.63;70.17;100013.28;5047135;28;20056;-80
2021/03/14 07:52:37;;;;;;;5.32;1.92;;;;;;;5.57;74.42;100010.34;5052255;28;20042;-81
2021/03/14 07:55:26;;;;;;;6.00;2.60;;;;;;;5.64;72.68;100014.94;5049403;28;20033;-81
2021/03/14 07:57:52;;;;;;;5.25;1.90;;;;;;;5.61;73.15;100028.31;5042010;28;20084;-81
2021/03/14 08:00:29;;;;;;;6.55;2.40;;;;;;;5.69;73.82;100020.59;5038428;28;20037;-80
2021/03/14 08:02:56;;;;;;;6.53;2.50;;;;;;;5.70;72.25;100029.31;5046157;28;20331;-81
2021/03/14 08:05:39;;;;;;;4.72;2.10;;;;;;;5.58;73.08;100025.97;5051827;28;20029;-81
2021/03/14 08:08:06;;;;;;;3.65;1.80;;;;;;;5.65;71.12;100037.59;5052381;28;20064;-81
2021/03/14 08:10:45;;;;;;;7.70;1.90;;;;;;;5.54;70.00;100040.28;5044394;28;20391;-80
2021/03/14 08:13:16;;;;;;;6.53;2.35;;;;;;;5.59;70.43;100039.91;5056334;28;20059;-81
2021/03/14 08:15:41;;;;;;;5.13;2.20;;;;;;;5.71;68.02;100057.19;5056583;28;20101;-81
2021/03/14 08:18:33;;;;;;;4.15;1.90;;;;;;;5.66;70.18;100044.47;5042565;28;20072;-82
2021/03/14 08:20:58;;;;;;;6.50;2.45;;;;;;;5.68;69.59;100047.81;5039094;28;20096;-80
2021/03/14 08:23:40;;;;;;;4.45;1.98;;;;;;;5.84;69.33;100054.34;5050644;28;20045;-82
2021/03/14 08:26:16;;;;;;;4.78;2.03;;;;;;;5.91;70.50;100052.84;5046650;28;20064;-81
2021/03/14 08:28:52;;;;;;;5.57;2.28;;;;;;;5.82;67.56;100053.66;5046432;28;20036;-81
2021/03/14 08:31:39;;;;;;;5.00;2.15;;;;;;;5.92;66.62;100057.97;5048745;28;20068;-81
2021/03/14 08:34:07;;;;;;;6.88;2.28;;;;;;;5.81;68.20;100052.81;5043209;28;20375;-80
2021/03/14 08:36:39;;;;;;;4.75;2.10;;;;;;;5.81;68.08;100065.09;5037579;28;20044;-79
2021/03/14 08:39:07;;;;;;;6.57;2.63;;;;;;;5.87;67.14;100056.72;5047910;28;20060;-79
2021/03/14 08:41:55;;;;;;;5.55;2.33;;;;;;;5.78;68.54;100068.00;5045286;28;20040;-80
2021/03/14 08:44:40;;;;;;;3.60;2.22;;;;;;;5.76;69.65;100073.38;5048407;28;20057;-80
2021/03/14 08:47:05;;;;;;;5.30;2.60;;;;;;;5.82;69.78;100067.63;5052229;28;20029;-79
2021/03/14 08:49:32;;;;;;;8.18;2.42;;;;;;;5.81;69.35;100073.81;5051811;28;20036;-80
2021/03/14 08:51:58;;;;;;;5.10;1.92;;;;;;;5.77;68.21;100076.81;5055900;28;20112;-78
2021/03/14 08:54:25;;;;;;;4.07;2.10;;;;;;;5.63;69.42;100081.47;5056417;28;20092;-79
2021/03/14 08:56:59;;;;;;;3.78;1.60;;;;;;;5.46;72.49;100090.78;5039697;28;20052;-79
2021/03/14 08:59:25;;;;;;;4.97;1.88;;;;;;;5.37;70.88;100093.34;5037525;28;20125;-81
2021/03/14 09:01:56;;;;;;;3.17;1.65;;;;;;;5.08;73.62;100107.09;5051744;28;20447;-79
2021/03/14 09:04:35;;;;;;;4.72;1.73;;;;;;;4.94;73.79;100097.75;5040996;28;20044;-81
2021/03/14 09:07:07;;;;;;;8.60;2.38;;;;;;;4.99;75.11;100092.94;5039586;28;20041;-80
2021/03/14 09:09:33;;;;;;;5.22;2.15;;;;;;;5.06;74.66;100101.97;5052318;28;20422;-80
2021/03/14 09:12:05;;;;;;;3.97;1.80;;;;;;;5.32;74.02;100104.22;5056162;28;20021;-80
2021/03/14 09:14:40;;;;;;;6.28;2.08;;;;;;;5.39;75.08;100105.38;5053491;28;20059;-82
2021/03/14 09:17:12;;;;;;;6.65;1.90;;;;;;;5.54;72.42;100105.84;5056920;28;20040;-80
2021/03/14 09:19:38;;;;;;;3.75;1.77;;;;;;;5.70;70.04;100111.47;5052462;28;20037;-82
2021/03/14 09:22:11;;;;;;;8.00;1.88;;;;;;;5.81;69.91;100114.97;5046903;28;20039;-80
2021/03/14 09:24:39;;;;;;;5.03;1.95;;;;;;;6.08;67.63;100119.69;5050850;28;20040;-82
2021/03/14 09:27:11;;;;;;;4.47;1.60;;;;;;;6.30;68.42;100110.75;5041389;28;20045;-81
2021/03/14 09:29:51;;;;;;;4.85;1.77;;;;;;;6.61;66.82;100113.31;5052555;28;20039;-81
2021/03/14 09:32:28;;;;;;;5.43;1.65;;;;;;;6.68;68.89;100111.78;5046019;28;20441;-82
2021/03/14 09:35:15;;;;;;;4.63;1.70;;;;;;;6.89;67.24;100119.53;5042451;28;20112;-82
2021/03/14 09:37:41;;;;;;;5.07;1.35;;;;;;;6.94;65.86;100118.16;5051272;28;20508;-82
2021/03/14 09:40:19;;;;;;;4.00;1.50;;;;;;;6.62;70.61;100128.91;5047988;28;20059;-82
2021/03/14 09:42:47;;;;;;;2.67;1.30;;;;;;;6.69;66.21;100127.41;5038259;28;20029;-82
2021/03/14 09:45:18;;;;;;;5.90;2.22;;;;;;;6.72;66.35;100121.03;5037912;28;20403;-81
2021/03/14 09:47:57;;;;;;;;;;;;;;;6.68;66.12;100122.31;5049160;28;20423;-79
2021/03/14 09:50:22;;;;;;;5.15;1.60;;;;;;;6.63;65.74;100124.50;5039857;28;19988;-82
2021/03/14 09:52:48;;;;;;;3.85;1.75;;;;;;;6.59;65.92;100116.06;5041312;28;20025;-81
2021/03/14 09:55:28;;;;;;;6.22;1.98;;;;;;;6.56;66.49;100121.59;5051002;28;20064;-81
2021/03/14 09:57:54;;;;;;;5.78;2.03;;;;;;;6.51;66.14;100114.13;5050921;28;20029;-80
2021/03/14 10:00:21;;;;;;;4.35;1.27;;;;;;;6.40;68.75;100119.47;5048968;28;20052;-81
2021/03/14 10:02:48;;;;;;;4.07;1.80;;;;;;;6.36;67.83;100118.06;5053239;28;20524;-81
2021/03/14 10:05:13;;;;;;;9.10;1.80;;;;;;;6.51;66.40;100118.56;5044475;28;20066;-81
2021/03/14 10:07:39;;;;;;;5.75;1.40;;;;;;;6.58;66.51;100125.75;5037875;28;20021;-81
2021/03/14 10:10:07;;;;;;;7.53;1.65;;;;;;;6.54;66.62;100116.47;5052461;28;20041;-80
2021/03/14 10:12:34;;;;;;;3.92;1.67;;;;;;;6.42;67.87;100122.81;5044260;28;20124;-80
2021/03/14 10:15:01;;;;;;;6.00;1.65;;;;;;;6.45;66.84;100119.06;5037953;28;20041;-80
2021/03/14 10:17:26;;;;;;;5.47;1.60;;;;;;;6.33;68.40;100123.59;5053376;28;20061;-80
2021/03/14 10:19:51;;;;;;;5.13;1.77;;;;;;;6.39;67.24;100123.09;5056335;28;20380;-81
2021/03/14 10:22:33;;;;;;;3.33;1.48;;;;;;;6.51;66.45;100124.63;5055647;28;20033;-81
2021/03/14 10:24:59;;;;;;;3.60;1.52;;;;;;;6.53;67.42;100122.69;5040972;28;20387;-81
2021/03/14 10:27:24;;;;;;;4.00;1.77;;;;;;;6.71;65.83;100117.59;5049709;28;20033;-81
2021/03/14 10:29:57;;;;;;;6.75;1.85;;;;;;;6.83;65.03;100115.66;5055044;28;20051;-80
2021/03/14 10:32:27;;;;;;;5.72;1.70;;;;;;;6.74;65.47;100121.75;5044006;28;20088;-80
2021/03/14 10:34:58;;;;;;;5.88;1.73;;;;;;;7.00;65.64;100114.97;5047028;28;20029;-81
2021/03/14 10:37:43;;;;;;;4.60;2.00;;;;;;;7.26;65.97;100114.41;5041594;28;20068;-82
2021/03/14 10:40:14;;;;;;;6.75;1.98;;;;;;;7.38;65.90;100120.34;5040990;28;20064;-82
2021/03/14 10:42:44;;;;;;;5.30;1.73;;;;;;;7.50;65.05;100121.84;5045358;28;20083;-82
2021/03/14 10:45:23;;;;;;;6.57;2.08;;;;;;;7.54;65.54;100127.66;5049316;28;20053;-82
2021/03/14 10:48:09;;;;;;;5.22;2.10;;;;;;;7.61;64.48;100124.31;5047553;28;20040;-81
2021/03/14 10:50:35;;;;;;;7.03;2.10;;;;;;;7.71;65.04;100123.44;5034472;28;20037;-82
2021/03/14 10:53:19;;;;;;;5.43;1.80;;;;;;;7.64;64.03;100125.81;5038377;28;20330;-79
2021/03/14 10:55:46;;;;;;;5.18;2.00;;;;;;;7.51;65.31;100133.19;5057961;28;20104;-79
2021/03/14 10:58:13;;;;;;;5.70;2.10;;;;;;;7.33;65.57;100127.81;5056356;28;20057;-79
2021/03/14 11:00:43;;;;;;;7.78;1.80;;;;;;;7.19;65.25;100132.53;5055052;28;20406;-81
2021/03/14 11:03:21;;;;;;;5.22;2.08;;;;;;;6.97;67.16;100131.03;5055484;28;20044;-78
2021/03/14 11:05:47;;;;;;;4.97;1.77;;;;;;;7.00;66.12;100138.63;5046181;28;20029;-82
2021/03/14 11:08:12;;;;;;;6.53;2.10;;;;;;;6.96;66.08;100134.63;5045065;28;20626;-79
2021/03/14 11:10:37;;;;;;;4.43;1.55;;;;;;;6.78;67.16;100133.66;5049148;28;20040;-82
2021/03/14 11:13:14;;;;;;;3.90;1.65;;;;;;;6.78;65.73;100137.09;5059135;28;20055;-80
2021/03/14 11:15:39;;;;;;;5.65;1.63;;;;;;;6.93;65.50;100129.63;5060196;28;20037;-80
2021/03/14 11:18:05;;;;;;;8.35;2.10;;;;;;;6.96;64.66;100136.41;5056862;28;20087;-81
2021/03/14 11:20:32;;;;;;;7.15;2.38;;;;;;;6.84;64.78;100130.47;5058949;28;20343;-79
2021/03/14 11:23:02;;;;;;;6.60;1.83;;;;;;;6.60;66.05;100130.84;5059665;28;20060;-79
2021/03/14 11:25:27;;;;;;;6.22;2.20;;;;;;;6.70;66.48;100136.13;5045069;28;20044;-81
2021/03/14 11:27:54;;;;;;;5.35;1.67;;;;;;;6.64;65.13;100129.63;5045704;28;20288;-81
2021/03/14 11:30:22;;;;;;;5.50;1.80;;;;;;;6.48;66.89;100129.31;5051963;28;20037;-79
2021/03/14 11:32:47;;;;;;;3.83;1.38;;;;;;;6.45;66.59;100138.28;5049547;28;20026;-80
2021/03/14 11:35:13;;;;;;;3.78;1.40;;;;;;;6.50;66.09;100127.38;5052327;28;20047;-80
2021/03/14 11:37:39;;;;;;;5.20;1.25;;;;;;;6.53;66.32;100132.34;5057174;28;20033;-80
2021/03/14 11:40:06;;;;;;;3.88;1.20;;;;;;;6.68;65.69;100140.69;5045132;28;20514;-80
2021/03/14 11:42:31;;;;;;;3.38;1.10;;;;;;;6.70;65.41;100136.13;5052398;28;20128;-80
2021/03/14 11:44:57;;;;;;;4.70;1.33;;;;;;;6.96;66.47;100142.53;5058906;28;20053;-80
2021/03/14 11:47:23;;;;;;;3.15;1.20;;;;;;;7.11;65.36;100142.09;5046495;28;20119;-79